^^
Station Historical Data
Daily Summary for October 13, 2017 Units:  Metric    English   Both
« Previous Day
Next Day »
Daily Weekly Monthly Yearly Custom
  High: Low: Average:
Temperature: 19.1 °C 6.9 °C 13.3 °C
Dew Point: 14.1 °C 5.5 °C 9.9 °C
Humidity: 93% 62% 81%
Wind Speed: 4.8km/h 0km/h 0.6km/h
Wind Gust: 14.5km/h - -
Wind- - WSW
Pressure: 1032.1 hPa 1027.3 hPa -
Precipitation: 0 mm    
Historical Graphs
 
 
Tabular Data for October 13, 2017
Time Temperature Dew Point Pressure Wind Wind Speed Wind Gust Humidity Rainfall Rate (Hourly) Conditions
00:15 10.3 °C 6.1 °C 1030 hPa Calm   9.7 km/h 75% 0 mm RA
00:30 10.1 °C 6 °C 1030.4 hPa Calm   9.7 km/h 76% 0 mm CLR
00:45 9.8 °C 5.8 °C 1030.4 hPa East 1.6 km/h 4.8 km/h 76% 0 mm CLR
01:00 9.6 °C 5.8 °C 1030.4 hPa Calm   3.2 km/h 77% 0 mm CLR
02:15 8.8 °C 5.9 °C 1030.7 hPa North 1.6 km/h 4.8 km/h 82% 0 mm FEW
02:30 8.7 °C 6 °C 1030.7 hPa Calm   4.8 km/h 83% 0 mm FEW
02:45 8.6 °C 5.9 °C 1030.7 hPa Calm   3.2 km/h 83% 0 mm FEW
03:00 8.4 °C 5.9 °C 1030.7 hPa Calm   6.4 km/h 84% 0 mm FEW
03:15 8.2 °C 5.8 °C 1030.7 hPa Calm     85% 0 mm FEW
03:30 8.1 °C 5.8 °C 1030.7 hPa Calm   1.6 km/h 86% 0 mm FEW
03:45 7.8 °C 5.8 °C 1030.7 hPa Calm     87% 0 mm FEW
04:00 7.6 °C 5.7 °C 1030.7 hPa Calm     88% 0 mm FEW
04:15 7.4 °C 5.7 °C 1031 hPa Calm     89% 0 mm CLR
04:30 7.4 °C 5.9 °C 1031 hPa Calm     90% 0 mm CLR
04:45 7.6 °C 6 °C 1031 hPa Calm     90% 0 mm CLR
05:00 7.8 °C 6.2 °C 1031 hPa Calm   1.6 km/h 90% 0 mm CLR
05:15 8.1 °C 6.2 °C 1030.7 hPa Calm   3.2 km/h 88% 0 mm SCT
05:30 7.9 °C 6.1 °C 1030.7 hPa Calm   3.2 km/h 88% 0 mm SCT
05:45 7.8 °C 5.9 °C 1030.7 hPa Calm   1.6 km/h 88% 0 mm SCT
06:00 7.6 °C 5.9 °C 1031 hPa Calm     89% 0 mm SCT
06:15 7.2 °C 5.7 °C 1031 hPa Calm     90% 0 mm SCT
06:30 7.1 °C 5.7 °C 1031 hPa Calm     91% 0 mm SCT
06:45 6.9 °C 5.5 °C 1031 hPa Calm     91% 0 mm SCT
07:00 6.9 °C 5.7 °C 1031.4 hPa Calm     92% 0 mm SCT
07:15 6.9 °C 5.7 °C 1031.4 hPa Calm     92% 0 mm SCT
07:30 7.2 °C 6.2 °C 1031.4 hPa Calm   1.6 km/h 93% 0 mm SCT
07:45 7.8 °C 6.4 °C 1031.7 hPa Calm   4.8 km/h 91% 0 mm SCT
08:00 8.3 °C 6.6 °C 1031.7 hPa Calm   4.8 km/h 89% 0 mm SCT
08:15 8.7 °C 6.7 °C 1031.7 hPa NW 3.2 km/h 4.8 km/h 87% 0 mm SCT
08:30 9.1 °C 6.8 °C 1031.7 hPa NNW 1.6 km/h 6.4 km/h 86% 0 mm SCT
08:45 9.6 °C 7.2 °C 1031.7 hPa North 1.6 km/h 4.8 km/h 85% 0 mm SCT
09:00 10.1 °C 7.5 °C 1031.7 hPa North 1.6 km/h 6.4 km/h 84% 0 mm SCT
09:15 10.5 °C 7.7 °C 1031.7 hPa Calm   4.8 km/h 83% 0 mm BKN
09:30 10.9 °C 8 °C 1031.7 hPa Calm   3.2 km/h 82% 0 mm BKN
09:45 11.1 °C 7.8 °C 1031.7 hPa WNW 1.6 km/h 4.8 km/h 80% 0 mm BKN
10:00 11.4 °C 8.3 °C 1031.7 hPa NW 1.6 km/h 4.8 km/h 81% 0 mm BKN
10:15 12.4 °C 9.6 °C 1031.7 hPa Calm   11.3 km/h 83% 0 mm BKN
10:30 13.3 °C 10.1 °C 1031.7 hPa Calm   6.4 km/h 81% 0 mm BKN
10:45 13.5 °C 9.9 °C 1032.1 hPa Calm   8 km/h 79% 0 mm BKN
11:00 13.9 °C 10.1 °C 1031.7 hPa Calm   8 km/h 78% 0 mm BKN
11:15 14.2 °C 10.6 °C 1031.7 hPa Calm   4.8 km/h 79% 0 mm BKN
11:30 15.1 °C 10.7 °C 1031.4 hPa SW 3.2 km/h 11.3 km/h 75% 0 mm BKN
11:45 15.2 °C 10.6 °C 1031.4 hPa WNW 1.6 km/h 12.9 km/h 74% 0 mm BKN
12:00 15.1 °C 10.7 °C 1031 hPa Calm   8 km/h 75% 0 mm BKN
12:15 15.5 °C 11.1 °C 1031 hPa NNW 3.2 km/h 11.3 km/h 75% 0 mm BKN
12:30 15.8 °C 11.2 °C 1030.7 hPa NW 1.6 km/h 12.9 km/h 74% 0 mm BKN
12:45 16.1 °C 11.4 °C 1030.4 hPa Calm   8 km/h 74% 0 mm BKN
13:00 16.8 °C 11.7 °C 1030.4 hPa NNW 3.2 km/h 12.9 km/h 72% 0 mm BKN
13:15 17.4 °C 12.1 °C 1030 hPa West 3.2 km/h 9.7 km/h 71% 0 mm BKN
13:30 17.3 °C 11.8 °C 1029.7 hPa WNW 1.6 km/h 11.3 km/h 70% 0 mm BKN
13:45 18.2 °C 11.9 °C 1029.7 hPa West 3.2 km/h 11.3 km/h 67% 0 mm BKN
14:00 18.6 °C 11.9 °C 1029.3 hPa SW 1.6 km/h 12.9 km/h 65% 0 mm BKN
14:15 18.7 °C 11.8 °C 1029.3 hPa North 3.2 km/h 11.3 km/h 64% 0 mm SCT
14:30 18.7 °C 11.8 °C 1029 hPa Calm   12.9 km/h 64% 0 mm SCT
14:45 18.8 °C 11.9 °C 1029 hPa WSW 1.6 km/h 14.5 km/h 64% 0 mm SCT
15:00 19.1 °C 11.7 °C 1028.7 hPa NNE 4.8 km/h 11.3 km/h 62% 0 mm SCT
15:15 18.8 °C 11.7 °C 1028.7 hPa WSW 3.2 km/h 11.3 km/h 63% 0 mm SCT
15:30 19 °C 12.1 °C 1028.7 hPa West 3.2 km/h 14.5 km/h 64% 0 mm SCT
15:45 18.8 °C 11.9 °C 1028.3 hPa Calm   9.7 km/h 64% 0 mm SCT
16:00 18.7 °C 11.7 °C 1028.3 hPa South 3.2 km/h 9.7 km/h 64% 0 mm SCT
16:15 18.8 °C 12.1 °C 1028.3 hPa Calm   11.3 km/h 65% 0 mm FEW
16:30 18.9 °C 11.9 °C 1028 hPa East 1.6 km/h 11.3 km/h 64% 0 mm FEW
16:45 18.3 °C 12.3 °C 1028 hPa Calm   6.4 km/h 68% 0 mm FEW
17:00 17.4 °C 12.3 °C 1028 hPa Calm   6.4 km/h 72% 0 mm FEW
17:15 17.2 °C 12.6 °C 1028 hPa Calm   8 km/h 74% 0 mm BKN
17:30 16.9 °C 12.7 °C 1028 hPa Calm   6.4 km/h 76% 0 mm BKN
17:45 16.7 °C 12.8 °C 1028 hPa Calm   4.8 km/h 78% 0 mm BKN
18:00 16.5 °C 12.8 °C 1028.3 hPa Calm   6.4 km/h 79% 0 mm BKN
18:15 16.4 °C 13.1 °C 1028 hPa Calm   3.2 km/h 81% 0 mm BKN
18:30 16.3 °C 13.2 °C 1028 hPa Calm   3.2 km/h 82% 0 mm BKN
18:45 16.2 °C 13.3 °C 1028 hPa Calm   4.8 km/h 83% 0 mm BKN
19:00 16.2 °C 13.3 °C 1028 hPa Calm   4.8 km/h 83% 0 mm BKN
19:15 16.1 °C 13.4 °C 1028 hPa Calm   4.8 km/h 84% 0 mm OVC
19:30 16.2 °C 13.4 °C 1028 hPa Calm   3.2 km/h 84% 0 mm OVC
19:45 16.2 °C 13.7 °C 1028 hPa Calm   1.6 km/h 85% 0 mm OVC
20:00 16.1 °C 13.6 °C 1028 hPa Calm   1.6 km/h 85% 0 mm OVC
20:15 16.2 °C 13.7 °C 1028 hPa Calm     85% 0 mm OVC
20:30 16.2 °C 13.8 °C 1028 hPa Calm   1.6 km/h 86% 0 mm OVC
20:45 16.2 °C 13.7 °C 1028 hPa Calm   3.2 km/h 85% 0 mm OVC
21:00 16.2 °C 13.7 °C 1028 hPa Calm   4.8 km/h 85% 0 mm OVC
21:45 15.8 °C 13.5 °C 1027.7 hPa Calm   9.7 km/h 86% 0 mm BKN
22:00 15.7 °C 13.6 °C 1027.7 hPa North 1.6 km/h 8 km/h 87% 0 mm BKN
22:15 15.7 °C 13.7 °C 1027.7 hPa Calm   4.8 km/h 88% 0 mm BKN
22:30 15.7 °C 13.7 °C 1027.7 hPa Calm   1.6 km/h 88% 0 mm BKN
22:45 15.7 °C 13.7 °C 1027.7 hPa Calm   4.8 km/h 88% 0 mm BKN
23:00 15.8 °C 13.9 °C 1027.7 hPa Calm   1.6 km/h 89% 0 mm BKN
23:15 15.8 °C 13.9 °C 1027.3 hPa Calm     89% 0 mm OVC
23:30 15.7 °C 13.9 °C 1027.3 hPa Calm     89% 0 mm OVC
23:45 15.7 °C 14.1 °C 1027.3 hPa Calm     90% 0 mm OVC
TarryTown NY Weather
Compliments of Weather Underground - 1.5 mb